Milford, MA (01757)

06:42 PM EDT die 27o April, anno 2017 (GMT -0400)
Dutcher Street | | Change Station

Elev 272 ft 42.14 °N, 71.55 °W | Updated 1 second ago

Aequaliter Nubila
Aequaliter Nubila
65.4 °F
Feels Like 65.4 °F
N
0.0
Ventus Variabilis Ventus from Auster
Gusts 1.0 mph

Hodie
High -- | Low -- °F
--% Chance of Precip.
Yesterday
High -- | Low -- °F
Precip. -- in
Pressio 29.96 in
Visibilitas 10.0 milia passuum
Clouds Aequaliter Nubila 2200 ft
Frigus in quo Ros apparet 58 °F
Umor 78%
Rainfall 0.00 in
Snow Depth Not available.
5:46 AM 7:41 PM
Waxing Crescent, 3% visible
METAR KSFZ 272156Z AUTO VRB05KT 10SM OVC022 18/14 A2991 RMK AO2 SLP146 T01780139
Pressio 29.96 in
Visibilitas 10.0 milia passuum
Clouds Aequaliter Nubila 2200 ft
Frigus in quo Ros apparet 58 °F
Umor 78%
Rainfall 0.00 in
Snow Depth Not available.
5:46 AM 7:41 PM
Waxing Crescent, 3% visible
METAR KSFZ 272156Z AUTO VRB05KT 10SM OVC022 18/14 A2991 RMK AO2 SLP146 T01780139

Get Severe Weather Alerts

Thanks for signing up!

Be on the lookout for a verification email in your inbox.

You'll start receiving the daily forecast at 8 AM.

×

10-Day Weather Forecast

Almanac

Astronomy

Apr. 27, 2017 Rise Set
Actual Time
Civil Twilight
Nautical Twilight
Astronomical Twilight
Moon
Length Of Visible Light
Length of Day
Tomorrow will be .
, % of the Moon is Illuminated

Today's Extremes

State Highs State Lows

Community

WunderPhotos

WunderBlog® & News

Nearby

Air Quality

  Air Quality AQ Index Pollutant
Not available.

Snow Depth

Station Depth Elevation

Earthquake Activity

City Distance Mag. Time & Date
Minimum magnitude displayed is 2.5.

Coastal Water Temperatures

Locus Calor

Stations

Nearby Weather Stations

Station Location Temp Frigus Venti Frigus in quo Ros apparet Umor Ventus Precip. Elev Renovata Type
                   

Watches & Warnings

There are currently no watches in effect.